sensor_id;sensor_type;location;lat;lon;timestamp;P1;durP1;ratioP1;P2;durP2;ratioP2
11269;SDS011;5692;48.956;9.200;2022-08-03T00:01:45;212.68;;;202.50;;
11269;SDS011;5692;48.956;9.200;2022-08-03T00:04:11;205.32;;;195.48;;
11269;SDS011;5692;48.956;9.200;2022-08-03T00:06:37;208.60;;;198.63;;
11269;SDS011;5692;48.956;9.200;2022-08-03T00:09:04;201.85;;;192.18;;
11269;SDS011;5692;48.956;9.200;2022-08-03T00:11:30;203.02;;;193.30;;
11269;SDS011;5692;48.956;9.200;2022-08-03T00:13:56;204.55;;;194.75;;
11269;SDS011;5692;48.956;9.200;2022-08-03T00:16:22;200.38;;;190.77;;
11269;SDS011;5692;48.956;9.200;2022-08-03T00:18:50;197.32;;;187.88;;
11269;SDS011;5692;48.956;9.200;2022-08-03T00:21:16;205.95;;;196.07;;
11269;SDS011;5692;48.956;9.200;2022-08-03T00:23:42;196.10;;;186.70;;
11269;SDS011;5692;48.956;9.200;2022-08-03T00:26:11;211.65;;;201.52;;
11269;SDS011;5692;48.956;9.200;2022-08-03T00:28:40;211.00;;;200.90;;
11269;SDS011;5692;48.956;9.200;2022-08-03T00:31:06;210.55;;;200.48;;
11269;SDS011;5692;48.956;9.200;2022-08-03T00:33:32;216.40;;;206.05;;
11269;SDS011;5692;48.956;9.200;2022-08-03T00:35:58;212.25;;;202.07;;
11269;SDS011;5692;48.956;9.200;2022-08-03T00:38:24;193.10;;;183.88;;
11269;SDS011;5692;48.956;9.200;2022-08-03T00:40:50;207.10;;;197.20;;
11269;SDS011;5692;48.956;9.200;2022-08-03T00:43:16;204.75;;;194.95;;
11269;SDS011;5692;48.956;9.200;2022-08-03T00:45:42;209.80;;;199.77;;
11269;SDS011;5692;48.956;9.200;2022-08-03T00:48:09;216.95;;;206.55;;
11269;SDS011;5692;48.956;9.200;2022-08-03T00:50:38;208.10;;;198.13;;
11269;SDS011;5692;48.956;9.200;2022-08-03T00:53:05;195.70;;;186.32;;
11269;SDS011;5692;48.956;9.200;2022-08-03T00:55:31;202.52;;;192.82;;
11269;SDS011;5692;48.956;9.200;2022-08-03T00:57:58;205.57;;;195.75;;
11269;SDS011;5692;48.956;9.200;2022-08-03T01:00:25;199.00;;;189.50;;
11269;SDS011;5692;48.956;9.200;2022-08-03T01:02:52;204.43;;;194.65;;
11269;SDS011;5692;48.956;9.200;2022-08-03T01:05:19;197.90;;;188.43;;
11269;SDS011;5692;48.956;9.200;2022-08-03T01:10:13;211.83;;;201.70;;
11269;SDS011;5692;48.956;9.200;2022-08-03T01:13:03;203.00;;;193.30;;
11269;SDS011;5692;48.956;9.200;2022-08-03T01:15:34;221.07;;;210.48;;
11269;SDS011;5692;48.956;9.200;2022-08-03T01:18:08;208.00;;;198.05;;
11269;SDS011;5692;48.956;9.200;2022-08-03T01:20:36;211.20;;;201.10;;
11269;SDS011;5692;48.956;9.200;2022-08-03T01:28:38;192.98;;;183.73;;
11269;SDS011;5692;48.956;9.200;2022-08-03T01:31:12;195.15;;;185.80;;
11269;SDS011;5692;48.956;9.200;2022-08-03T01:33:45;190.68;;;181.57;;
11269;SDS011;5692;48.956;9.200;2022-08-03T01:36:12;190.90;;;181.75;;
11269;SDS011;5692;48.956;9.200;2022-08-03T01:38:43;200.00;;;190.43;;
11269;SDS011;5692;48.956;9.200;2022-08-03T01:41:11;193.35;;;184.10;;
11269;SDS011;5692;48.956;9.200;2022-08-03T01:43:38;194.60;;;185.27;;
11269;SDS011;5692;48.956;9.200;2022-08-03T01:46:05;200.68;;;191.07;;
11269;SDS011;5692;48.956;9.200;2022-08-03T01:48:32;196.75;;;187.32;;
11269;SDS011;5692;48.956;9.200;2022-08-03T01:50:59;193.88;;;184.60;;
11269;SDS011;5692;48.956;9.200;2022-08-03T01:53:25;199.82;;;190.27;;
11269;SDS011;5692;48.956;9.200;2022-08-03T01:55:54;205.50;;;195.65;;
11269;SDS011;5692;48.956;9.200;2022-08-03T01:58:24;203.05;;;193.32;;
11269;SDS011;5692;48.956;9.200;2022-08-03T02:00:51;193.25;;;184.00;;
11269;SDS011;5692;48.956;9.200;2022-08-03T02:03:19;206.10;;;196.20;;
11269;SDS011;5692;48.956;9.200;2022-08-03T02:05:49;221.20;;;210.60;;
11269;SDS011;5692;48.956;9.200;2022-08-03T02:08:16;193.55;;;184.27;;
11269;SDS011;5692;48.956;9.200;2022-08-03T02:10:43;205.65;;;195.82;;
11269;SDS011;5692;48.956;9.200;2022-08-03T02:13:11;201.10;;;191.48;;
11269;SDS011;5692;48.956;9.200;2022-08-03T02:15:37;199.73;;;190.15;;
11269;SDS011;5692;48.956;9.200;2022-08-03T02:18:04;204.93;;;195.13;;
11269;SDS011;5692;48.956;9.200;2022-08-03T02:20:32;192.00;;;182.80;;
11269;SDS011;5692;48.956;9.200;2022-08-03T02:23:00;205.02;;;195.23;;
11269;SDS011;5692;48.956;9.200;2022-08-03T02:25:26;207.02;;;197.13;;
11269;SDS011;5692;48.956;9.200;2022-08-03T02:28:14;195.90;;;186.50;;
11269;SDS011;5692;48.956;9.200;2022-08-03T02:30:42;208.40;;;198.45;;
11269;SDS011;5692;48.956;9.200;2022-08-03T02:33:11;206.43;;;196.52;;
11269;SDS011;5692;48.956;9.200;2022-08-03T02:35:38;193.45;;;184.18;;
11269;SDS011;5692;48.956;9.200;2022-08-03T02:38:06;208.13;;;198.18;;
11269;SDS011;5692;48.956;9.200;2022-08-03T02:40:32;204.40;;;194.63;;
11269;SDS011;5692;48.956;9.200;2022-08-03T02:43:00;204.98;;;195.18;;
11269;SDS011;5692;48.956;9.200;2022-08-03T02:45:27;190.48;;;181.35;;
11269;SDS011;5692;48.956;9.200;2022-08-03T02:47:55;205.02;;;195.23;;
11269;SDS011;5692;48.956;9.200;2022-08-03T02:50:22;202.57;;;192.88;;
11269;SDS011;5692;48.956;9.200;2022-08-03T02:52:50;205.02;;;195.23;;
11269;SDS011;5692;48.956;9.200;2022-08-03T02:55:19;203.15;;;193.43;;
11269;SDS011;5692;48.956;9.200;2022-08-03T02:57:46;198.07;;;188.57;;
11269;SDS011;5692;48.956;9.200;2022-08-03T03:00:13;210.95;;;200.85;;
11269;SDS011;5692;48.956;9.200;2022-08-03T03:02:39;189.07;;;180.00;;
11269;SDS011;5692;48.956;9.200;2022-08-03T03:05:06;190.38;;;181.25;;
11269;SDS011;5692;48.956;9.200;2022-08-03T03:07:35;176.38;;;167.93;;
11269;SDS011;5692;48.956;9.200;2022-08-03T03:10:03;193.68;;;184.38;;
11269;SDS011;5692;48.956;9.200;2022-08-03T03:12:32;192.02;;;182.82;;
11269;SDS011;5692;48.956;9.200;2022-08-03T03:15:04;192.90;;;183.65;;
11269;SDS011;5692;48.956;9.200;2022-08-03T03:17:32;183.38;;;174.60;;
11269;SDS011;5692;48.956;9.200;2022-08-03T03:19:58;181.70;;;173.00;;
11269;SDS011;5692;48.956;9.200;2022-08-03T03:22:26;186.25;;;177.35;;
11269;SDS011;5692;48.956;9.200;2022-08-03T03:24:52;187.70;;;178.70;;
11269;SDS011;5692;48.956;9.200;2022-08-03T03:27:19;191.25;;;182.10;;
11269;SDS011;5692;48.956;9.200;2022-08-03T03:29:48;183.95;;;175.15;;
11269;SDS011;5692;48.956;9.200;2022-08-03T03:32:14;184.85;;;176.00;;
11269;SDS011;5692;48.956;9.200;2022-08-03T03:34:40;192.85;;;183.63;;
11269;SDS011;5692;48.956;9.200;2022-08-03T03:37:07;188.60;;;179.55;;
11269;SDS011;5692;48.956;9.200;2022-08-03T03:39:33;186.57;;;177.65;;
11269;SDS011;5692;48.956;9.200;2022-08-03T03:42:00;205.63;;;195.80;;
11269;SDS011;5692;48.956;9.200;2022-08-03T03:44:27;191.05;;;181.93;;
11269;SDS011;5692;48.956;9.200;2022-08-03T03:46:58;183.38;;;174.57;;
11269;SDS011;5692;48.956;9.200;2022-08-03T03:49:25;184.25;;;175.43;;
11269;SDS011;5692;48.956;9.200;2022-08-03T03:51:52;181.63;;;172.93;;
11269;SDS011;5692;48.956;9.200;2022-08-03T03:54:18;183.70;;;174.90;;
11269;SDS011;5692;48.956;9.200;2022-08-03T03:56:45;175.85;;;167.43;;
11269;SDS011;5692;48.956;9.200;2022-08-03T03:59:11;177.93;;;169.43;;
11269;SDS011;5692;48.956;9.200;2022-08-03T04:01:37;192.45;;;183.25;;
11269;SDS011;5692;48.956;9.200;2022-08-03T04:04:04;174.13;;;165.80;;
11269;SDS011;5692;48.956;9.200;2022-08-03T04:06:48;190.25;;;181.15;;
11269;SDS011;5692;48.956;9.200;2022-08-03T04:09:37;193.93;;;184.63;;
11269;SDS011;5692;48.956;9.200;2022-08-03T04:12:23;184.38;;;175.57;;
11269;SDS011;5692;48.956;9.200;2022-08-03T04:14:51;192.15;;;182.95;;
11269;SDS011;5692;48.956;9.200;2022-08-03T04:17:19;183.43;;;174.63;;
11269;SDS011;5692;48.956;9.200;2022-08-03T04:19:47;191.98;;;182.77;;
11269;SDS011;5692;48.956;9.200;2022-08-03T04:22:16;189.32;;;180.27;;
11269;SDS011;5692;48.956;9.200;2022-08-03T04:24:45;184.70;;;175.88;;
11269;SDS011;5692;48.956;9.200;2022-08-03T04:27:13;173.20;;;164.90;;
11269;SDS011;5692;48.956;9.200;2022-08-03T04:29:40;177.75;;;169.25;;
11269;SDS011;5692;48.956;9.200;2022-08-03T04:32:08;192.73;;;183.50;;
11269;SDS011;5692;48.956;9.200;2022-08-03T04:34:35;192.75;;;183.55;;
11269;SDS011;5692;48.956;9.200;2022-08-03T04:37:04;189.48;;;180.40;;
11269;SDS011;5692;48.956;9.200;2022-08-03T04:39:34;194.13;;;184.82;;
11269;SDS011;5692;48.956;9.200;2022-08-03T04:42:05;205.90;;;196.02;;
11269;SDS011;5692;48.956;9.200;2022-08-03T04:44:34;183.52;;;174.73;;
11269;SDS011;5692;48.956;9.200;2022-08-03T04:47:01;183.70;;;174.93;;
11269;SDS011;5692;48.956;9.200;2022-08-03T04:49:27;190.73;;;181.57;;
11269;SDS011;5692;48.956;9.200;2022-08-03T04:51:53;188.35;;;179.32;;
11269;SDS011;5692;48.956;9.200;2022-08-03T04:54:19;183.65;;;174.85;;
11269;SDS011;5692;48.956;9.200;2022-08-03T04:56:46;182.70;;;173.98;;
11269;SDS011;5692;48.956;9.200;2022-08-03T04:59:14;185.00;;;176.10;;
11269;SDS011;5692;48.956;9.200;2022-08-03T05:01:41;179.73;;;171.13;;
11269;SDS011;5692;48.956;9.200;2022-08-03T05:04:08;179.75;;;171.15;;
11269;SDS011;5692;48.956;9.200;2022-08-03T05:06:34;189.93;;;180.82;;
11269;SDS011;5692;48.956;9.200;2022-08-03T05:09:00;176.73;;;168.25;;
11269;SDS011;5692;48.956;9.200;2022-08-03T05:11:26;170.07;;;161.93;;
11269;SDS011;5692;48.956;9.200;2022-08-03T05:13:53;172.02;;;163.80;;
11269;SDS011;5692;48.956;9.200;2022-08-03T05:16:19;174.95;;;166.55;;
11269;SDS011;5692;48.956;9.200;2022-08-03T05:18:45;179.27;;;170.68;;
11269;SDS011;5692;48.956;9.200;2022-08-03T05:21:11;181.00;;;172.32;;
11269;SDS011;5692;48.956;9.200;2022-08-03T05:23:41;177.30;;;168.80;;
11269;SDS011;5692;48.956;9.200;2022-08-03T05:26:07;176.60;;;168.15;;
11269;SDS011;5692;48.956;9.200;2022-08-03T05:28:35;179.88;;;171.27;;
11269;SDS011;5692;48.956;9.200;2022-08-03T05:31:04;175.63;;;167.23;;
11269;SDS011;5692;48.956;9.200;2022-08-03T05:33:30;184.48;;;175.63;;
11269;SDS011;5692;48.956;9.200;2022-08-03T05:35:56;178.10;;;169.60;;
11269;SDS011;5692;48.956;9.200;2022-08-03T05:38:26;189.10;;;180.05;;
11269;SDS011;5692;48.956;9.200;2022-08-03T05:40:52;172.38;;;164.13;;
11269;SDS011;5692;48.956;9.200;2022-08-03T05:43:18;191.95;;;182.75;;
11269;SDS011;5692;48.956;9.200;2022-08-03T05:45:44;188.50;;;179.45;;
11269;SDS011;5692;48.956;9.200;2022-08-03T05:48:10;195.20;;;185.85;;
11269;SDS011;5692;48.956;9.200;2022-08-03T05:50:38;183.93;;;175.10;;
11269;SDS011;5692;48.956;9.200;2022-08-03T05:53:04;181.48;;;172.77;;
11269;SDS011;5692;48.956;9.200;2022-08-03T05:55:30;189.13;;;180.07;;
11269;SDS011;5692;48.956;9.200;2022-08-03T05:57:56;194.02;;;184.73;;
11269;SDS011;5692;48.956;9.200;2022-08-03T06:00:22;195.80;;;186.45;;
11269;SDS011;5692;48.956;9.200;2022-08-03T06:02:49;186.02;;;177.13;;
11269;SDS011;5692;48.956;9.200;2022-08-03T06:05:15;191.40;;;182.20;;
11269;SDS011;5692;48.956;9.200;2022-08-03T06:07:41;180.55;;;171.90;;
11269;SDS011;5692;48.956;9.200;2022-08-03T06:10:07;197.63;;;188.15;;
11269;SDS011;5692;48.956;9.200;2022-08-03T06:12:33;190.77;;;181.63;;
11269;SDS011;5692;48.956;9.200;2022-08-03T06:15:00;190.65;;;181.55;;
11269;SDS011;5692;48.956;9.200;2022-08-03T06:17:27;193.38;;;184.13;;
11269;SDS011;5692;48.956;9.200;2022-08-03T06:19:53;187.68;;;178.68;;
11269;SDS011;5692;48.956;9.200;2022-08-03T06:22:21;189.23;;;180.18;;
11269;SDS011;5692;48.956;9.200;2022-08-03T06:24:47;188.60;;;179.57;;
11269;SDS011;5692;48.956;9.200;2022-08-03T06:27:13;191.38;;;182.20;;
11269;SDS011;5692;48.956;9.200;2022-08-03T06:29:39;204.05;;;194.25;;
11269;SDS011;5692;48.956;9.200;2022-08-03T06:32:05;198.95;;;189.43;;
11269;SDS011;5692;48.956;9.200;2022-08-03T06:34:31;182.73;;;173.98;;
11269;SDS011;5692;48.956;9.200;2022-08-03T06:36:57;189.82;;;180.73;;
11269;SDS011;5692;48.956;9.200;2022-08-03T06:39:24;209.77;;;199.75;;
11269;SDS011;5692;48.956;9.200;2022-08-03T06:41:52;194.80;;;185.50;;
11269;SDS011;5692;48.956;9.200;2022-08-03T06:44:18;187.63;;;178.63;;
11269;SDS011;5692;48.956;9.200;2022-08-03T06:46:47;193.07;;;183.82;;
11269;SDS011;5692;48.956;9.200;2022-08-03T06:49:16;187.05;;;178.10;;
11269;SDS011;5692;48.956;9.200;2022-08-03T06:51:45;195.10;;;185.75;;
11269;SDS011;5692;48.956;9.200;2022-08-03T06:54:11;196.50;;;187.10;;
11269;SDS011;5692;48.956;9.200;2022-08-03T06:56:37;185.27;;;176.40;;
11269;SDS011;5692;48.956;9.200;2022-08-03T06:59:04;198.95;;;189.45;;
11269;SDS011;5692;48.956;9.200;2022-08-03T07:01:32;206.60;;;196.73;;
11269;SDS011;5692;48.956;9.200;2022-08-03T07:04:01;186.45;;;177.55;;
11269;SDS011;5692;48.956;9.200;2022-08-03T07:06:28;213.32;;;203.13;;
11269;SDS011;5692;48.956;9.200;2022-08-03T07:08:55;213.20;;;203.00;;
11269;SDS011;5692;48.956;9.200;2022-08-03T07:11:21;199.63;;;190.03;;
11269;SDS011;5692;48.956;9.200;2022-08-03T07:13:52;202.05;;;192.38;;
11269;SDS011;5692;48.956;9.200;2022-08-03T07:16:18;186.00;;;177.10;;
11269;SDS011;5692;48.956;9.200;2022-08-03T07:18:44;194.07;;;184.77;;
11269;SDS011;5692;48.956;9.200;2022-08-03T07:21:13;194.00;;;184.70;;
11269;SDS011;5692;48.956;9.200;2022-08-03T07:23:43;193.67;;;184.40;;
11269;SDS011;5692;48.956;9.200;2022-08-03T07:26:09;206.80;;;196.90;;
11269;SDS011;5692;48.956;9.200;2022-08-03T07:28:35;197.90;;;188.40;;
11269;SDS011;5692;48.956;9.200;2022-08-03T07:31:02;209.97;;;199.90;;
11269;SDS011;5692;48.956;9.200;2022-08-03T07:33:28;197.47;;;188.00;;
11269;SDS011;5692;48.956;9.200;2022-08-03T07:35:54;193.87;;;184.57;;
11269;SDS011;5692;48.956;9.200;2022-08-03T07:38:20;181.97;;;173.27;;
11269;SDS011;5692;48.956;9.200;2022-08-03T07:40:49;198.37;;;188.87;;
11269;SDS011;5692;48.956;9.200;2022-08-03T07:43:18;192.60;;;183.37;;
11269;SDS011;5692;48.956;9.200;2022-08-03T07:45:48;189.13;;;180.07;;
11269;SDS011;5692;48.956;9.200;2022-08-03T07:48:17;184.63;;;175.80;;
11269;SDS011;5692;48.956;9.200;2022-08-03T07:50:46;191.73;;;182.53;;
11269;SDS011;5692;48.956;9.200;2022-08-03T07:53:12;196.20;;;186.80;;
11269;SDS011;5692;48.956;9.200;2022-08-03T07:55:38;185.07;;;176.20;;
11269;SDS011;5692;48.956;9.200;2022-08-03T07:58:10;185.63;;;176.73;;
11269;SDS011;5692;48.956;9.200;2022-08-03T08:00:40;191.70;;;182.50;;
11269;SDS011;5692;48.956;9.200;2022-08-03T08:03:06;193.00;;;183.77;;
11269;SDS011;5692;48.956;9.200;2022-08-03T08:05:33;190.07;;;180.97;;
11269;SDS011;5692;48.956;9.200;2022-08-03T08:08:01;181.20;;;172.50;;
11269;SDS011;5692;48.956;9.200;2022-08-03T08:10:28;188.17;;;179.17;;
11269;SDS011;5692;48.956;9.200;2022-08-03T08:12:57;194.30;;;185.00;;
11269;SDS011;5692;48.956;9.200;2022-08-03T08:15:23;192.43;;;183.23;;
11269;SDS011;5692;48.956;9.200;2022-08-03T08:17:51;191.40;;;182.23;;
11269;SDS011;5692;48.956;9.200;2022-08-03T08:20:21;180.20;;;171.57;;
11269;SDS011;5692;48.956;9.200;2022-08-03T08:22:51;189.63;;;180.53;;
11269;SDS011;5692;48.956;9.200;2022-08-03T08:25:17;198.77;;;189.27;;
11269;SDS011;5692;48.956;9.200;2022-08-03T08:27:44;194.07;;;184.77;;
11269;SDS011;5692;48.956;9.200;2022-08-03T08:30:12;193.17;;;183.93;;
11269;SDS011;5692;48.956;9.200;2022-08-03T08:32:38;203.10;;;193.40;;
11269;SDS011;5692;48.956;9.200;2022-08-03T08:35:05;202.40;;;192.70;;
11269;SDS011;5692;48.956;9.200;2022-08-03T08:37:31;196.53;;;187.13;;
11269;SDS011;5692;48.956;9.200;2022-08-03T08:39:58;218.00;;;207.60;;
11269;SDS011;5692;48.956;9.200;2022-08-03T08:42:24;212.70;;;202.53;;
11269;SDS011;5692;48.956;9.200;2022-08-03T08:44:50;198.53;;;189.03;;
11269;SDS011;5692;48.956;9.200;2022-08-03T08:47:21;193.97;;;184.70;;
11269;SDS011;5692;48.956;9.200;2022-08-03T08:49:49;214.07;;;203.83;;
11269;SDS011;5692;48.956;9.200;2022-08-03T08:52:18;211.93;;;201.80;;
11269;SDS011;5692;48.956;9.200;2022-08-03T08:54:44;243.40;;;231.77;;
11269;SDS011;5692;48.956;9.200;2022-08-03T08:57:13;248.13;;;236.27;;
11269;SDS011;5692;48.956;9.200;2022-08-03T08:59:40;241.00;;;229.50;;
11269;SDS011;5692;48.956;9.200;2022-08-03T09:02:07;234.07;;;222.87;;
11269;SDS011;5692;48.956;9.200;2022-08-03T09:04:33;232.97;;;221.83;;
11269;SDS011;5692;48.956;9.200;2022-08-03T09:07:00;239.77;;;228.27;;
11269;SDS011;5692;48.956;9.200;2022-08-03T09:09:26;249.70;;;237.77;;
11269;SDS011;5692;48.956;9.200;2022-08-03T09:11:52;256.97;;;244.67;;
11269;SDS011;5692;48.956;9.200;2022-08-03T09:14:18;232.70;;;221.57;;
11269;SDS011;5692;48.956;9.200;2022-08-03T09:16:57;247.13;;;235.33;;
11269;SDS011;5692;48.956;9.200;2022-08-03T09:19:30;214.53;;;204.27;;
11269;SDS011;5692;48.956;9.200;2022-08-03T09:22:13;216.67;;;206.30;;
11269;SDS011;5692;48.956;9.200;2022-08-03T09:27:21;229.70;;;218.70;;
11269;SDS011;5692;48.956;9.200;2022-08-03T09:29:50;223.10;;;212.43;;
11269;SDS011;5692;48.956;9.200;2022-08-03T09:32:20;239.77;;;228.30;;
11269;SDS011;5692;48.956;9.200;2022-08-03T09:34:47;215.73;;;205.43;;
11269;SDS011;5692;48.956;9.200;2022-08-03T09:37:14;209.70;;;199.70;;
11269;SDS011;5692;48.956;9.200;2022-08-03T09:39:41;226.23;;;215.43;;
11269;SDS011;5692;48.956;9.200;2022-08-03T09:42:11;207.67;;;197.73;;
11269;SDS011;5692;48.956;9.200;2022-08-03T09:44:47;211.20;;;201.10;;
11269;SDS011;5692;48.956;9.200;2022-08-03T09:47:27;199.50;;;189.93;;
11269;SDS011;5692;48.956;9.200;2022-08-03T09:50:00;185.63;;;176.73;;
11269;SDS011;5692;48.956;9.200;2022-08-03T09:53:00;181.07;;;172.37;;
11269;SDS011;5692;48.956;9.200;2022-08-03T09:55:21;176.47;;;168.00;;
11269;SDS011;5692;48.956;9.200;2022-08-03T09:57:48;183.10;;;174.30;;
11269;SDS011;5692;48.956;9.200;2022-08-03T10:00:15;184.10;;;175.30;;
11269;SDS011;5692;48.956;9.200;2022-08-03T10:02:42;187.77;;;178.77;;
11269;SDS011;5692;48.956;9.200;2022-08-03T10:05:12;185.03;;;176.13;;
11269;SDS011;5692;48.956;9.200;2022-08-03T10:07:44;184.53;;;175.73;;
11269;SDS011;5692;48.956;9.200;2022-08-03T10:10:16;184.43;;;175.60;;
11269;SDS011;5692;48.956;9.200;2022-08-03T10:12:43;139.47;;;132.77;;
11269;SDS011;5692;48.956;9.200;2022-08-03T10:15:12;135.10;;;128.63;;
11269;SDS011;5692;48.956;9.200;2022-08-03T10:17:38;127.07;;;120.97;;
11269;SDS011;5692;48.956;9.200;2022-08-03T10:20:04;81.33;;;77.40;;
11269;SDS011;5692;48.956;9.200;2022-08-03T10:22:34;89.47;;;85.13;;
11269;SDS011;5692;48.956;9.200;2022-08-03T10:27:38;140.07;;;133.37;;
11269;SDS011;5692;48.956;9.200;2022-08-03T10:30:06;145.27;;;138.30;;
11269;SDS011;5692;48.956;9.200;2022-08-03T10:35:11;154.77;;;147.37;;
11269;SDS011;5692;48.956;9.200;2022-08-03T10:37:41;149.00;;;141.87;;
11269;SDS011;5692;48.956;9.200;2022-08-03T10:40:12;133.57;;;127.17;;
11269;SDS011;5692;48.956;9.200;2022-08-03T10:42:44;121.40;;;115.60;;
11269;SDS011;5692;48.956;9.200;2022-08-03T10:45:17;113.87;;;108.37;;
11269;SDS011;5692;48.956;9.200;2022-08-03T10:47:44;113.97;;;108.47;;
11269;SDS011;5692;48.956;9.200;2022-08-03T10:50:10;131.10;;;124.80;;
11269;SDS011;5692;48.956;9.200;2022-08-03T10:52:53;159.67;;;152.00;;
11269;SDS011;5692;48.956;9.200;2022-08-03T10:55:32;159.93;;;152.27;;
11269;SDS011;5692;48.956;9.200;2022-08-03T11:01:05;152.00;;;144.70;;
11269;SDS011;5692;48.956;9.200;2022-08-03T11:06:20;163.83;;;155.97;;
11269;SDS011;5692;48.956;9.200;2022-08-03T11:08:47;142.50;;;135.67;;
11269;SDS011;5692;48.956;9.200;2022-08-03T11:16:23;124.93;;;118.93;;
11269;SDS011;5692;48.956;9.200;2022-08-03T11:18:55;124.07;;;118.10;;
11269;SDS011;5692;48.956;9.200;2022-08-03T11:21:21;114.70;;;109.20;;
11269;SDS011;5692;48.956;9.200;2022-08-03T11:24:07;119.80;;;114.03;;
11269;SDS011;5692;48.956;9.200;2022-08-03T11:26:35;108.17;;;102.97;;
11269;SDS011;5692;48.956;9.200;2022-08-03T11:31:46;86.77;;;82.57;;
11269;SDS011;5692;48.956;9.200;2022-08-03T11:34:13;105.50;;;100.40;;
11269;SDS011;5692;48.956;9.200;2022-08-03T11:39:43;90.57;;;86.17;;
11269;SDS011;5692;48.956;9.200;2022-08-03T11:44:57;88.13;;;83.90;;
11269;SDS011;5692;48.956;9.200;2022-08-03T11:47:25;85.37;;;81.27;;
11269;SDS011;5692;48.956;9.200;2022-08-03T11:49:55;84.10;;;80.00;;
11269;SDS011;5692;48.956;9.200;2022-08-03T11:52:23;80.30;;;76.43;;
11269;SDS011;5692;48.956;9.200;2022-08-03T11:54:52;82.77;;;78.77;;
11269;SDS011;5692;48.956;9.200;2022-08-03T11:57:31;102.33;;;97.43;;
11269;SDS011;5692;48.956;9.200;2022-08-03T11:59:58;107.47;;;102.30;;
11269;SDS011;5692;48.956;9.200;2022-08-03T12:02:24;81.97;;;78.00;;
11269;SDS011;5692;48.956;9.200;2022-08-03T12:04:54;97.30;;;92.60;;
11269;SDS011;5692;48.956;9.200;2022-08-03T12:07:22;122.80;;;116.90;;
11269;SDS011;5692;48.956;9.200;2022-08-03T12:12:33;157.80;;;150.20;;
11269;SDS011;5692;48.956;9.200;2022-08-03T12:14:59;190.80;;;181.67;;
11269;SDS011;5692;48.956;9.200;2022-08-03T12:17:36;177.73;;;169.23;;
11269;SDS011;5692;48.956;9.200;2022-08-03T12:20:05;182.67;;;173.93;;
11269;SDS011;5692;48.956;9.200;2022-08-03T12:22:36;207.10;;;197.20;;
11269;SDS011;5692;48.956;9.200;2022-08-03T12:25:02;200.30;;;190.70;;
11269;SDS011;5692;48.956;9.200;2022-08-03T12:27:33;195.40;;;186.07;;
11269;SDS011;5692;48.956;9.200;2022-08-03T12:29:59;184.70;;;175.87;;
11269;SDS011;5692;48.956;9.200;2022-08-03T12:32:26;151.10;;;143.87;;
11269;SDS011;5692;48.956;9.200;2022-08-03T12:34:53;135.63;;;129.13;;
11269;SDS011;5692;48.956;9.200;2022-08-03T12:37:23;132.73;;;126.37;;
11269;SDS011;5692;48.956;9.200;2022-08-03T12:39:53;132.47;;;126.10;;
11269;SDS011;5692;48.956;9.200;2022-08-03T12:42:20;149.20;;;142.00;;
11269;SDS011;5692;48.956;9.200;2022-08-03T12:44:48;146.60;;;139.60;;
11269;SDS011;5692;48.956;9.200;2022-08-03T12:47:15;142.63;;;135.80;;
11269;SDS011;5692;48.956;9.200;2022-08-03T12:49:47;152.97;;;145.63;;
11269;SDS011;5692;48.956;9.200;2022-08-03T12:52:14;147.80;;;140.70;;
11269;SDS011;5692;48.956;9.200;2022-08-03T12:54:41;160.17;;;152.50;;
11269;SDS011;5692;48.956;9.200;2022-08-03T12:57:16;160.97;;;153.27;;
11269;SDS011;5692;48.956;9.200;2022-08-03T12:59:43;149.70;;;142.50;;
11269;SDS011;5692;48.956;9.200;2022-08-03T13:02:13;130.10;;;123.87;;
11269;SDS011;5692;48.956;9.200;2022-08-03T13:04:40;126.90;;;120.80;;
11269;SDS011;5692;48.956;9.200;2022-08-03T13:07:07;135.90;;;129.40;;
11269;SDS011;5692;48.956;9.200;2022-08-03T13:09:40;120.60;;;114.80;;
11269;SDS011;5692;48.956;9.200;2022-08-03T13:12:08;122.90;;;117.00;;
11269;SDS011;5692;48.956;9.200;2022-08-03T13:14:35;128.80;;;122.60;;
11269;SDS011;5692;48.956;9.200;2022-08-03T13:17:04;122.33;;;116.43;;
11269;SDS011;5692;48.956;9.200;2022-08-03T13:19:31;126.83;;;120.73;;
11269;SDS011;5692;48.956;9.200;2022-08-03T13:21:57;123.73;;;117.80;;
11269;SDS011;5692;48.956;9.200;2022-08-03T13:24:23;117.33;;;111.70;;
11269;SDS011;5692;48.956;9.200;2022-08-03T13:26:49;123.27;;;117.37;;
11269;SDS011;5692;48.956;9.200;2022-08-03T13:29:16;120.23;;;114.47;;
11269;SDS011;5692;48.956;9.200;2022-08-03T13:31:42;112.43;;;107.03;;
11269;SDS011;5692;48.956;9.200;2022-08-03T13:34:08;46.23;;;43.97;;
11269;SDS011;5692;48.956;9.200;2022-08-03T13:36:34;152.07;;;144.77;;
11269;SDS011;5692;48.956;9.200;2022-08-03T13:39:00;139.63;;;132.90;;
11269;SDS011;5692;48.956;9.200;2022-08-03T13:41:26;149.87;;;142.67;;
11269;SDS011;5692;48.956;9.200;2022-08-03T13:43:52;141.53;;;134.73;;
11269;SDS011;5692;48.956;9.200;2022-08-03T13:46:20;149.60;;;142.40;;
11269;SDS011;5692;48.956;9.200;2022-08-03T13:48:46;117.97;;;112.27;;
11269;SDS011;5692;48.956;9.200;2022-08-03T13:51:12;118.83;;;113.13;;
11269;SDS011;5692;48.956;9.200;2022-08-03T13:53:38;154.57;;;147.17;;
11269;SDS011;5692;48.956;9.200;2022-08-03T13:56:04;173.57;;;165.27;;
11269;SDS011;5692;48.956;9.200;2022-08-03T13:58:30;170.93;;;162.73;;
11269;SDS011;5692;48.956;9.200;2022-08-03T14:00:59;169.17;;;161.07;;
11269;SDS011;5692;48.956;9.200;2022-08-03T14:03:25;165.47;;;157.57;;
11269;SDS011;5692;48.956;9.200;2022-08-03T14:05:51;159.77;;;152.07;;
11269;SDS011;5692;48.956;9.200;2022-08-03T14:08:17;150.47;;;143.27;;
11269;SDS011;5692;48.956;9.200;2022-08-03T14:10:44;146.80;;;139.77;;
11269;SDS011;5692;48.956;9.200;2022-08-03T14:13:11;154.93;;;147.53;;
11269;SDS011;5692;48.956;9.200;2022-08-03T14:15:40;153.03;;;145.73;;
11269;SDS011;5692;48.956;9.200;2022-08-03T14:18:06;141.83;;;135.03;;
11269;SDS011;5692;48.956;9.200;2022-08-03T14:20:33;153.17;;;145.83;;
11269;SDS011;5692;48.956;9.200;2022-08-03T14:22:59;143.77;;;136.87;;
11269;SDS011;5692;48.956;9.200;2022-08-03T14:25:25;143.70;;;136.80;;
11269;SDS011;5692;48.956;9.200;2022-08-03T14:27:51;144.37;;;137.47;;
11269;SDS011;5692;48.956;9.200;2022-08-03T14:30:18;146.70;;;139.70;;
11269;SDS011;5692;48.956;9.200;2022-08-03T14:32:44;136.77;;;130.17;;
11269;SDS011;5692;48.956;9.200;2022-08-03T14:35:10;139.53;;;132.83;;
11269;SDS011;5692;48.956;9.200;2022-08-03T14:37:39;130.83;;;124.53;;
11269;SDS011;5692;48.956;9.200;2022-08-03T14:40:05;129.50;;;123.30;;
11269;SDS011;5692;48.956;9.200;2022-08-03T14:42:31;135.10;;;128.60;;
11269;SDS011;5692;48.956;9.200;2022-08-03T14:44:57;128.63;;;122.47;;
11269;SDS011;5692;48.956;9.200;2022-08-03T14:47:24;128.37;;;122.20;;
11269;SDS011;5692;48.956;9.200;2022-08-03T14:49:56;153.33;;;145.97;;
11269;SDS011;5692;48.956;9.200;2022-08-03T14:52:24;155.60;;;148.13;;